Tiempo atmosférico en la estación meteorológica de Forua, Bizkaia (45 m.)



Fecha
DESCASC
Temp. máxima en grados centígrados (hora)
DESCASC
Temp. mínima en grados centígrados (hora)
DESCASC
Temp. media en grados centígrados
DESCASC
Racha de viento máxima en m/sg (hora)
DESCASC
Velocidad máxima media en intervalos de 10 minutos(hora)
DESCASC
Precipitaciones diarias en mm
DESCASC
Precipitaciones de 00:00 a 06:00 en mm
DESCASC
Precipitaciones de 06:00 a 12:00 en mm
DESCASC
Precipitaciones de 12:00 a 18:00 en mm
DESCASC
Precipitaciones de 18:00 a 24:00 en mm
DESCASC
23-05-2018 22.7 (17:40) 11.8 (07:20) 17.3 6.39 (21:00) 3.33 (12:50) 0 0 0 0 0
22-05-2018 24.9 (14:50) 9.4 (06:50) 17.1 9.72 (18:10) 5.83 (18:10) 0 0 0 0 0
21-05-2018 21.9 (12:00) 9.6 (07:00) 15.8 8.89 (15:00) 5 (15:00) 0 0 0 0 0
20-05-2018 21.7 (15:40) 10.1 (00:00) 15.9 8.06 (14:40) 5 (14:50) 0 0 0 0 0
19-05-2018 22.9 (14:10) 11.6 (00:00) 17.3 8.06 (16:00) 5.56 (16:10) 0 0 0 0 0
18-05-2018 21.7 (16:40) 11.7 (00:00) 16.7 7.5 (18:40) 5.28 (18:50) 0 0 0 0 0
17-05-2018 18.8 (13:40) 7.5 (00:00) 13.1 6.67 (16:20) 3.89 (14:50) 0 0 0 0 0
16-05-2018 18.3 (17:40) 9.9 (00:00) 14.1 6.94 (16:40) 4.44 (18:10) 0 0 0 0 0
15-05-2018 17.5 (16:50) 8.9 (00:00) 13.2 8.61 (15:50) 4.72 (15:50) 0 0 0 0 0
14-05-2018 16.6 (14:30) 9.1 (00:00) 12.9 9.72 (15:30) 5.28 (15:40) 1.8 1.4 0.4 0 0
13-05-2018 15.9 (17:30) 5.4 (00:00) 10.6 10.28 (03:00) 4.17 (16:00) 20.8 4.2 5.4 3.6 7.6
12-05-2018 13.3 (16:10) 7.1 (00:00) 10.2 11.67 (17:50) 6.67 (16:20) 6.8 0 6.6 0.2 0
11-05-2018 25.8 (13:30) 4.1 (06:10) 14.9 8.89 (15:20) 4.72 (13:50) 0 0 0 0 0
10-05-2018 17.4 (17:40) 8.1 (00:00) 12.8 9.17 (13:10) 5 (13:10) 3 0.2 2.8 0 0
09-05-2018 17.3 (15:10) 12.1 (00:00) 14.7 6.67 (19:10) 3.89 (16:20) 0 0 0 0 0
08-05-2018 17.2 (15:10) 13.2 (00:00) 15.2 10.83 (17:00) 4.72 (13:40) 0 0 0 0 0
07-05-2018 22.5 (14:50) 9.8 (00:00) 16.2 8.89 (15:50) 5.83 (16:10) 0 0 0 0 0
06-05-2018 22.8 (14:10) 8.8 (00:00) 15.8 8.61 (16:30) 5.56 (15:20) 0 0 0 0 0
05-05-2018 19.5 (15:10) 6.8 (00:00) 13.2 5.83 (15:50) 3.61 (18:40) 0 0 0 0 0
04-05-2018 16.2 (15:20) 7.9 (00:00) 12.1 9.72 (15:20) 5 (15:30) 0 0 0 0 0
03-05-2018 14.1 (14:50) 9.7 (00:00) 11.9 10 (11:00) 5.83 (12:30) 1 1 0 0 0
02-05-2018 18.1 (13:00) 5.4 (00:00) 11.8 5.83 (20:20) 3.33 (14:30) 8.4 0 0 3 5.4
01-05-2018 15.3 (13:40) 6.5 (07:30) 10.9 7.5 (02:00) 4.17 (16:40) 2.8 2.6 0.2 0 0
30-04-2018 10 (13:40) 7.5 (00:00) 8.8 6.94 (15:50) 3.61 (15:50) 8.6 0.6 1.6 2.6 3.8
29-04-2018 16.4 (14:50) 9 (00:00) 12.7 10.28 (04:50) 6.11 (04:50) 0 0 0 0 0
28-04-2018 11.9 (15:40) 9.3 (00:00) 10.6 3.61 (15:50) 1.67 (00:30) 4.8 3.8 0.6 0.2 0.2

Gráficas

Temp. máximas Temp. mínimas Temp. medias Precipitaciones Rachas de viento máximas Velocidades máximas media en intervalos de 10 minutos

Datos horarios

Fecha y hora oficial Temperatura (ºC) Velocidad del viento (km/h) Dirección del viento Racha (km/h) Dirección de racha Precipitación (mm) Presión (hPa) Tendencia (hPa) Humedad (%)
2018-05-27 23:00:00 -- -- -- -- -- -- -- -- --
2018-05-27 22:00:00 15.3 2 Noroeste 5 Sudoeste 0 -- -- 99
2018-05-27 21:00:00 15.4 2 Norte 15 Norte 0 -- -- 99
2018-05-27 20:00:00 15.6 12 Norte 23 Norte 0.2 -- -- 98
2018-05-27 19:00:00 16.4 9 Norte 19 Norte 0 -- -- 96
2018-05-27 18:00:00 16.8 12 Norte 17 Norte 0 -- -- 94
2018-05-27 17:00:00 16.9 3 Nordeste 18 Nordeste 0 -- -- 95
2018-05-27 16:00:00 17.6 8 Norte 19 Nordeste 0 -- -- 89
2018-05-27 15:00:00 17.7 5 Este 19 Nordeste 0 -- -- 88
2018-05-27 14:00:00 17.7 9 Norte 16 Norte 0 -- -- 88
2018-05-27 13:00:00 18.2 6 Norte 11 Nordeste 0 -- -- 88
2018-05-27 12:00:00 17.5 2 Este 5 Sudeste 0 -- -- 88
2018-05-27 11:00:00 16.9 0 Calma 5 Sudoeste 0 -- -- 98
2018-05-27 10:00:00 15.4 4 Sudoeste 7 Sudoeste 0 -- -- 100
2018-05-27 09:00:00 13.9 4 Sur 6 Sudeste 0 -- -- 100
2018-05-27 08:00:00 12.8 2 Sudoeste 7 Sudeste 0 -- -- 100
2018-05-27 07:00:00 11.9 4 Sudoeste 7 Sudoeste 0 -- -- 100
2018-05-27 06:00:00 11.7 5 Sudoeste 7 Sudoeste 0 -- -- 100
2018-05-27 05:00:00 11.4 4 Sudoeste 6 Oeste 0 -- -- 100
2018-05-27 04:00:00 11.9 0 Calma 8 Sudoeste 0 -- -- 100
2018-05-27 03:00:00 12.2 6 Sudoeste 10 Sudoeste 0 -- -- 99
2018-05-27 02:00:00 13 3 Sudoeste 4 Sudoeste 0 -- -- 98
2018-05-27 01:00:00 13.7 0 Calma 4 Sudoeste 0 -- -- 96
2018-05-27 00:00:00 14.4 2 Sudoeste 4 Noroeste 0 -- -- 95
2018-05-26 23:00:00 15.1 0 Calma 6 Noroeste 0 -- -- 90
2018-05-26 22:00:00 16.8 0 Calma 7 Norte 0 -- -- 82
2018-05-26 21:00:00 18.1 4 Norte 16 Nordeste 0 -- -- 79
2018-05-26 20:00:00 20.3 8 Norte 16 Norte 0 -- -- 79
2018-05-26 19:00:00 21 5 Noroeste 9 Norte 0 -- -- 76
2018-05-26 18:00:00 19.7 4 Nordeste 20 Este 0 -- -- 77
2018-05-26 17:00:00 20 8 Nordeste 33 Noroeste 0 -- -- 78
2018-05-26 16:00:00 21.6 5 Nordeste 11 Norte 0 -- -- 82
2018-05-26 15:00:00 20.2 3 Sur 12 Sur 0 -- -- 82
2018-05-26 14:00:00 20.2 3 Sudeste 9 Sur 0 -- -- 91
2018-05-26 13:00:00 17.5 4 Sudeste 6 Sudeste 0 -- -- 100
2018-05-26 12:00:00 16.6 3 Sudoeste 9 Sur 0.6 -- -- 100
2018-05-26 11:00:00 16.3 2 Noroeste 8 Oeste 1.6 -- -- 100
2018-05-26 10:00:00 16.8 4 Sur 7 Sudeste 0 -- -- 100
2018-05-26 09:00:00 15.8 3 Sur 6 Oeste 0 -- -- 100
2018-05-26 08:00:00 15 0 Calma 10 Sudoeste 0 -- -- 100
2018-05-26 07:00:00 14.8 7 Sudoeste 9 Sudoeste 0 -- -- 100
2018-05-26 06:00:00 15.1 3 Sudoeste 6 Sudoeste 0 -- -- 100
2018-05-26 05:00:00 15.2 0 Calma 8 Sudeste 0 -- -- 100
2018-05-26 04:00:00 15.3 5 Sudoeste 8 Sudoeste 0.2 -- -- 100
2018-05-26 03:00:00 15.6 2 Nordeste 6 Este 2.2 -- -- 100
2018-05-26 02:00:00 15.8 2 Nordeste 6 Sudeste 4.6 -- -- 100
2018-05-26 01:00:00 15.9 4 Noroeste 10 Norte 0.2 -- -- 100
2018-05-26 00:00:00 16.2 4 Norte 10 Sudeste 6.4 -- -- 99
2018-05-25 23:00:00 16.6 5 Sudoeste 8 Nordeste 3.8 -- -- 97
2018-05-25 22:00:00 16.9 3 Norte 13 Norte 0 -- -- 94
2018-05-25 21:00:00 17.5 7 Norte 12 Norte 0 -- -- 91
2018-05-25 20:00:00 17.9 6 Norte 12 Nordeste 0 -- -- 89
2018-05-25 19:00:00 18.4 6 Norte 12 Norte 0 -- -- 91
2018-05-25 18:00:00 19.1 4 Nordeste 10 Nordeste 0 -- -- 87
2018-05-25 17:00:00 20.9 6 Nordeste 14 Este 0 -- -- 81
2018-05-25 16:00:00 21.2 6 Norte 11 Norte 0 -- -- 85
2018-05-25 15:00:00 21 7 Este 13 Norte 0 -- -- 82
2018-05-25 14:00:00 19.1 5 Sudeste 9 Sudeste 0 -- -- 89
2018-05-25 13:00:00 18.8 3 Norte 8 Nordeste 0.8 -- -- 95
2018-05-25 12:00:00 18.3 5 Nordeste 19 Norte 0.6 -- -- 88
2018-05-25 11:00:00 19.2 9 Norte 17 Norte 0 -- -- 85
2018-05-25 10:00:00 18.2 7 Norte 11 Nordeste 0 -- -- 93
2018-05-25 09:00:00 16.6 3 Norte 8 Oeste 0 -- -- 98
2018-05-25 08:00:00 15.5 5 Sur 10 Sudoeste 0 -- -- 98
2018-05-25 07:00:00 15.1 6 Sur 40 Oeste 0 -- -- 96
2018-05-25 06:00:00 15.3 10 Oeste 28 Oeste 0 -- -- 99
2018-05-25 05:00:00 15.4 4 Sur 9 Oeste 0 -- -- 98
2018-05-25 04:00:00 15.8 6 Oeste 21 Norte 1.4 -- -- 95
2018-05-25 03:00:00 17 11 Noroeste 32 Noroeste 1 -- -- 97
2018-05-25 02:00:00 16.8 3 Sur 22 Norte 0.8 -- -- 97
2018-05-25 01:00:00 16.9 4 Este 8 Nordeste 0 -- -- 98
2018-05-25 00:00:00 17.3 4 Este 10 Norte 0 -- -- 96
2018-05-24 23:00:00 17.4 5 Norte 14 Nordeste 0 -- -- 96
2018-05-24 22:00:00 17.6 8 Nordeste 26 Norte 0 -- -- 96
2018-05-24 21:00:00 18.2 11 Norte 20 Nordeste 0.2 -- -- 93
2018-05-24 20:00:00 18.9 3 Noroeste 16 Nordeste 0 -- -- 86
2018-05-24 19:00:00 20.3 10 Norte 22 Norte 0 -- -- 81
2018-05-24 18:00:00 22.9 11 Norte 23 Norte 0 -- -- 71
2018-05-24 17:00:00 23.4 13 Norte 27 Nordeste 0 -- -- 72
2018-05-24 16:00:00 23.9 18 Norte 29 Norte 0 -- -- 72
2018-05-24 15:00:00 23.3 16 Norte 29 Norte 0 -- -- 73
2018-05-24 14:00:00 23.1 17 Norte 28 Nordeste 0 -- -- 77
2018-05-24 13:00:00 23.3 17 Norte 27 Norte 0 -- -- 73
2018-05-24 12:00:00 22.7 12 Norte 21 Norte 0 -- -- 75
2018-05-24 11:00:00 22.2 10 Norte 16 Norte 0 -- -- 77
2018-05-24 10:00:00 20.9 0 Calma 7 Sudeste 0 -- -- 77
2018-05-24 09:00:00 17.7 4 Sudoeste 7 Sudoeste 0 -- -- 93
2018-05-24 08:00:00 15 0 Calma 5 Sudoeste 0 -- -- 98
2018-05-24 07:00:00 15.3 3 Sudoeste 8 Oeste 0 -- -- 98
2018-05-24 06:00:00 15.5 4 Oeste 14 Norte 0 -- -- 97
2018-05-24 05:00:00 15.2 5 Norte 10 Norte 0 -- -- 97
2018-05-24 04:00:00 15.8 5 Sudoeste 9 Oeste 0 -- -- 96
2018-05-24 03:00:00 15.7 3 Sudoeste 14 Sudoeste 0 -- -- 95
2018-05-24 02:00:00 15.9 4 Sudoeste 7 Sudoeste 0 -- -- 94
2018-05-24 01:00:00 16.4 3 Sudoeste 8 Norte 0 -- -- 93
2018-05-24 00:00:00 16.7 4 Nordeste 13 Norte 0 -- -- 92
2018-05-23 23:00:00 16.9 6 Nordeste 19 Norte 0 -- -- 90
2018-05-23 22:00:00 17.2 10 Norte 23 Nordeste 0 -- -- 86
2018-05-23 21:00:00 18 11 Norte 23 Norte 0 -- -- 82
2018-05-23 20:00:00 18.8 8 Norte 19 Norte 0 -- -- 80
2018-05-23 19:00:00 20.1 9 Nordeste 19 Nordeste 0 -- -- 77
2018-05-23 18:00:00 21.7 10 Nordeste 18 Norte 0 -- -- 73
2018-05-23 17:00:00 22.5 10 Norte 16 Nordeste 0 -- -- 70
2018-05-23 16:00:00 21 7 Norte 17 Norte 0 -- -- 71
2018-05-23 15:00:00 21.5 10 Nordeste 17 Nordeste 0 -- -- 71
2018-05-23 14:00:00 21.7 8 Nordeste 18 Nordeste 0 -- -- 75
2018-05-23 13:00:00 21.1 11 Norte 21 Nordeste 0 -- -- 77
2018-05-23 12:00:00 21.7 6 Nordeste 11 Norte 0 -- -- 73
2018-05-23 11:00:00 19.3 3 Norte 6 Sudeste 0 -- -- 84
2018-05-23 10:00:00 16.6 2 Nordeste 4 Norte 0 -- -- 95
2018-05-23 09:00:00 14.8 2 Este 6 Sudeste 0 -- -- 100
2018-05-23 08:00:00 12.5 4 Oeste 6 Oeste 0 -- -- 100
2018-05-23 07:00:00 12.1 2 Nordeste 9 Sudoeste 0 -- -- 100
2018-05-23 06:00:00 12.3 4 Sur 8 Sur 0 -- -- 100
2018-05-23 05:00:00 12.6 5 Sudoeste 9 Sudoeste 0 -- -- 100
2018-05-23 04:00:00 12.9 2 Sur 6 Sudoeste 0 -- -- 99
2018-05-23 03:00:00 13.5 0 Calma 8 Sudoeste 0 -- -- 99
2018-05-23 02:00:00 13.5 3 Sur 8 Sudoeste 0 -- -- 98
2018-05-23 01:00:00 13.9 5 Sudoeste 10 Sudoeste 0 -- -- 99
2018-05-23 00:00:00 14.1 4 Sudoeste 6 Sudoeste 0 -- -- 97
2018-05-22 23:00:00 14.9 0 Calma 8 Norte 0 -- -- 96
2018-05-22 22:00:00 15.8 7 Norte 21 Norte 0 -- -- 92
2018-05-22 21:00:00 17.6 13 Norte 21 Norte 0 -- -- 86
2018-05-22 20:00:00 20.7 15 Norte 24 Norte 0 -- -- 77
2018-05-22 19:00:00 21.8 17 Norte 35 Norte 0 -- -- 71
2018-05-22 18:00:00 22.3 17 Norte 30 Norte 0 -- -- 66
2018-05-22 17:00:00 24.4 16 Norte 26 Norte 0 -- -- 57
2018-05-22 16:00:00 24.5 18 Norte 28 Norte 0 -- -- 57
2018-05-22 15:00:00 24.9 14 Norte 26 Norte 0 -- -- 55
2018-05-22 14:00:00 24.5 13 Norte 23 Norte 0 -- -- 52
2018-05-22 13:00:00 24.1 9 Norte 18 Norte 0 -- -- 59
2018-05-22 12:00:00 23 5 Sudeste 15 Sudeste 0 -- -- 60
2018-05-22 11:00:00 21.4 6 Sur 13 Sudoeste 0 -- -- 63
2018-05-22 10:00:00 18.1 5 Sur 11 Sudoeste 0 -- -- 79
2018-05-22 09:00:00 14.1 8 Sudoeste 13 Sudoeste 0 -- -- 95
2018-05-22 08:00:00 11.3 8 Sudoeste 13 Sudoeste 0 -- -- 100
2018-05-22 07:00:00 9.5 9 Sudoeste 12 Sudoeste 0 -- -- 99
2018-05-22 06:00:00 9.8 6 Sudoeste 11 Sudoeste 0 -- -- 99
2018-05-22 05:00:00 9.8 4 Sudoeste 9 Sudoeste 0 -- -- 98
2018-05-22 04:00:00 10.4 4 Sudoeste 10 Sudoeste 0 -- -- 97
2018-05-22 03:00:00 11.2 6 Sudoeste 10 Sudoeste 0 -- -- 97
2018-05-22 02:00:00 11.8 6 Sudoeste 10 Sudoeste 0 -- -- 95
2018-05-22 01:00:00 12.6 6 Sudoeste 8 Sudoeste 0 -- -- 95
2018-05-22 00:00:00 13.2 4 Sudoeste 8 Sudoeste 0 -- -- 93
2018-05-21 23:00:00 14.7 4 Sudoeste 8 Sudoeste 0 -- -- 87
2018-05-21 22:00:00 16.3 3 Oeste 6 Sudoeste 0 -- -- 80
2018-05-21 21:00:00 18.2 3 Norte 13 Norte 0 -- -- 73
2018-05-21 20:00:00 20.8 9 Norte 23 Norte 0 -- -- 63
2018-05-21 19:00:00 21.2 15 Norte 24 Norte 0 -- -- 63
2018-05-21 18:00:00 20.6 13 Norte 26 Norte 0 -- -- 68
2018-05-21 17:00:00 21.5 15 Norte 27 Norte 0 -- -- 69
2018-05-21 16:00:00 21.6 17 Norte 30 Nordeste 0 -- -- 71
2018-05-21 15:00:00 21.5 18 Norte 32 Norte 0 -- -- 73
2018-05-21 14:00:00 21.7 13 Nordeste 24 Nordeste 0 -- -- 75
2018-05-21 13:00:00 21 14 Nordeste 27 Nordeste 0 -- -- 75
2018-05-21 12:00:00 21.9 10 Norte 18 Norte 0 -- -- 70
2018-05-21 11:00:00 20.4 3 Nordeste 8 Nordeste 0 -- -- 74
2018-05-21 10:00:00 16.9 2 Oeste 8 Sudoeste 0 -- -- 81
2018-05-21 09:00:00 13.9 3 Sudoeste 8 Sudoeste 0 -- -- 95
2018-05-21 08:00:00 10.9 4 Sudoeste 8 Sudoeste 0 -- -- 100
2018-05-21 07:00:00 9.6 2 Noroeste 9 Sudoeste 0 -- -- 99
2018-05-21 06:00:00 10 5 Sudoeste 7 Sudoeste 0 -- -- 99
2018-05-21 05:00:00 10.5 5 Sudoeste 8 Oeste 0 -- -- 99
2018-05-21 04:00:00 10.9 2 Sur 8 Sudoeste 0 -- -- 98
2018-05-21 03:00:00 11.4 5 Sudoeste 8 Sudoeste 0 -- -- 97
2018-05-21 02:00:00 11.8 4 Sudoeste 7 Sudoeste 0 -- -- 97
2018-05-21 01:00:00 12.6 3 Sur 7 Sudoeste 0 -- -- 97
2018-05-21 00:00:00 13.1 4 Sudoeste 6 Sur 0 -- -- 96
2018-05-20 23:00:00 13.9 3 Norte 12 Norte 0 -- -- 94
2018-05-20 22:00:00 14.7 8 Norte 20 Norte 0 -- -- 92
2018-05-20 21:00:00 16.5 12 Norte 19 Nordeste 0 -- -- 83
2018-05-20 20:00:00 19.3 11 Norte 18 Nordeste 0 -- -- 73
2018-05-20 19:00:00 21 11 Norte 22 Norte 0 -- -- 70
2018-05-20 18:00:00 20.8 11 Norte 22 Norte 0 -- -- 73
2018-05-20 17:00:00 20.9 13 Norte 26 Norte 0 -- -- 69
2018-05-20 16:00:00 21.7 14 Norte 27 Norte 0 -- -- 58
2018-05-20 15:00:00 21.3 15 Norte 29 Norte 0 -- -- 58
2018-05-20 14:00:00 21.4 17 Norte 24 Norte 0 -- -- 56
2018-05-20 13:00:00 20.9 13 Norte 20 Norte 0 -- -- 66
2018-05-20 12:00:00 20.6 4 Sudeste 9 Este 0 -- -- 64
2018-05-20 11:00:00 18.9 5 Sudeste 10 Sur 0 -- -- 66
2018-05-20 10:00:00 16.8 5 Sur 11 Oeste 0 -- -- 81
2018-05-20 09:00:00 13.6 5 Sudoeste 13 Sur 0 -- -- 97
2018-05-20 08:00:00 10.9 7 Sudoeste 12 Sudoeste 0 -- -- 100
2018-05-20 07:00:00 10.3 6 Sudoeste 12 Sur 0 -- -- 100
2018-05-20 06:00:00 10.5 8 Sudoeste 12 Sudoeste 0 -- -- 100
2018-05-20 05:00:00 11.2 8 Sudoeste 10 Sudoeste 0 -- -- 99
2018-05-20 04:00:00 11.8 6 Sudoeste 9 Sudoeste 0 -- -- 99
2018-05-20 03:00:00 11.2 4 Sudoeste 5 Sudoeste 0 -- -- 99
2018-05-20 02:00:00 11.5 0 Calma 6 Sudoeste 0 -- -- 98
2018-05-20 01:00:00 11.9 5 Sudoeste 7 Sudoeste 0 -- -- 97
2018-05-20 00:00:00 12.6 5 Sudoeste 7 Oeste 0 -- -- 96
2018-05-19 23:00:00 13.7 0 Calma 7 Nordeste 0 -- -- 94
2018-05-19 22:00:00 14.3 5 Norte 15 Norte 0 -- -- 91
2018-05-19 21:00:00 16.3 11 Norte 20 Nordeste 0 -- -- 86
2018-05-19 20:00:00 19.4 13 Norte 23 Norte 0 -- -- 71
2018-05-19 19:00:00 20.5 11 Norte 24 Norte 0 -- -- 67
2018-05-19 18:00:00 20.8 16 Norte 24 Norte 0 -- -- 70
2018-05-19 17:00:00 21.6 14 Norte 29 Norte 0 -- -- 64
2018-05-19 16:00:00 22.1 18 Norte 29 Norte 0 -- -- 62
2018-05-19 15:00:00 22.9 17 Norte 26 Norte 0 -- -- 60
2018-05-19 14:00:00 22.7 12 Nordeste 22 Nordeste 0 -- -- 60
2018-05-19 13:00:00 21.6 4 Noroeste 12 Noroeste 0 -- -- 65
2018-05-19 12:00:00 20.6 6 Sudoeste 14 Sur 0 -- -- 73
2018-05-19 11:00:00 18.6 6 Sur 18 Sudoeste 0 -- -- 79
2018-05-19 10:00:00 16.1 8 Sudoeste 13 Sudoeste 0 -- -- 89
2018-05-19 09:00:00 14.5 8 Sudoeste 14 Sudoeste 0 -- -- 97
2018-05-19 08:00:00 13.2 5 Sudoeste 11 Sudoeste 0 -- -- 100
2018-05-19 07:00:00 12.5 7 Sudoeste 10 Sudoeste 0 -- -- 100
2018-05-19 06:00:00 11.8 6 Sudoeste 12 Sudoeste 0 -- -- 99
2018-05-19 05:00:00 11.9 8 Sudoeste 11 Sudoeste 0 -- -- 99
2018-05-19 04:00:00 12.6 8 Sudoeste 10 Sudoeste 0 -- -- 98
2018-05-19 03:00:00 13 5 Sudoeste 9 Sudoeste 0 -- -- 96
2018-05-19 02:00:00 13.7 5 Sur 7 Sudoeste 0 -- -- 95
2018-05-19 01:00:00 14.2 4 Sur 4 Sudoeste 0 -- -- 95
2018-05-19 00:00:00 14.7 3 Norte 6 Norte 0 -- -- 93
2018-05-18 23:00:00 15 2 Nordeste 5 Nordeste 0 -- -- 91
2018-05-18 22:00:00 15.3 3 Nordeste 13 Nordeste 0 -- -- 91
2018-05-18 21:00:00 15.8 8 Nordeste 21 Nordeste 0 -- -- 89
2018-05-18 20:00:00 17 11 Norte 24 Norte 0 -- -- 85
2018-05-18 19:00:00 19.5 14 Norte 27 Norte 0 -- -- 77
2018-05-18 18:00:00 21.1 14 Norte 24 Norte 0 -- -- 75
2018-05-18 17:00:00 21.6 15 Norte 23 Norte 0 -- -- 74
2018-05-18 16:00:00 21.2 12 Norte 21 Norte 0 -- -- 76
2018-05-18 15:00:00 19.6 10 Nordeste 17 Nordeste 0 -- -- 77
2018-05-18 14:00:00 17.3 5 Noroeste 9 Oeste 0 -- -- 86
2018-05-18 13:00:00 16.9 4 Oeste 13 Oeste 0 -- -- 86
2018-05-18 12:00:00 17 6 Sudoeste 11 Sudoeste 0 -- -- 84
2018-05-18 11:00:00 16.2 3 Sur 8 Sur 0 -- -- 86
2018-05-18 10:00:00 16.2 5 Sur 12 Sur 0 -- -- 86
2018-05-18 09:00:00 13.5 0 Calma 3 Noroeste 0 -- -- 100
2018-05-18 08:00:00 11.9 0 Calma 4 Sudoeste 0 -- -- 99
2018-05-18 07:00:00 11.7 0 Calma 7 Sudoeste 0 -- -- 98
2018-05-18 06:00:00 12.3 4 Sudoeste 8 Sudoeste 0 -- -- 98
2018-05-18 05:00:00 12.4 2 Sur 7 Oeste 0 -- -- 98
2018-05-18 04:00:00 12.3 4 Sudeste 6 Sur 0 -- -- 97
2018-05-18 03:00:00 12.9 3 Sudoeste 6 Oeste 0 -- -- 96
2018-05-18 02:00:00 13 5 Sudoeste 8 Sudoeste 0 -- -- 95
2018-05-18 01:00:00 13.7 0 Calma 4 Oeste 0 -- -- 93
2018-05-18 00:00:00 14 2 Noroeste 6 Norte 0 -- -- 91
2018-05-17 23:00:00 14.2 4 Norte 10 Nordeste 0 -- -- 90
2018-05-17 22:00:00 14.3 6 Nordeste 14 Norte 0 -- -- 89
2018-05-17 21:00:00 14.8 9 Norte 17 Norte 0 -- -- 86
2018-05-17 20:00:00 16 7 Nordeste 16 Nordeste 0 -- -- 81
2018-05-17 19:00:00 16.5 10 Este 21 Este 0 -- -- 80
2018-05-17 18:00:00 16.4 13 Este 23 Este 0 -- -- 79
2018-05-17 17:00:00 18.2 12 Este 24 Este 0 -- -- 73
2018-05-17 16:00:00 18.1 13 Este 23 Este 0 -- -- 73
2018-05-17 15:00:00 18.1 12 Este 21 Este 0 -- -- 77
2018-05-17 14:00:00 18.5 9 Nordeste 18 Norte 0 -- -- 74
2018-05-17 13:00:00 16 9 Norte 20 Norte 0 -- -- 82
2018-05-17 12:00:00 16.3 4 Nordeste 13 Este 0 -- -- 78
2018-05-17 11:00:00 14.8 4 Este 7 Sudoeste 0 -- -- 86
2018-05-17 10:00:00 13.5 4 Oeste 7 Oeste 0 -- -- 98
2018-05-17 09:00:00 9.6 5 Sudoeste 6 Oeste 0 -- -- 100
2018-05-17 08:00:00 8 3 Sudoeste 6 Sudoeste 0 -- -- 100
2018-05-17 07:00:00 7.5 3 Sudoeste 9 Sur 0 -- -- 100
2018-05-17 06:00:00 7.8 7 Oeste 9 Sudoeste 0 -- -- 100
2018-05-17 05:00:00 7.7 4 Sudoeste 5 Sudoeste 0 -- -- 100
2018-05-17 04:00:00 7.5 5 Oeste 6 Oeste 0 -- -- 99
2018-05-17 03:00:00 8 4 Sudoeste 8 Sudoeste 0 -- -- 99
2018-05-17 02:00:00 8.5 5 Sudoeste 9 Sudoeste 0 -- -- 98
2018-05-17 01:00:00 9.1 4 Sudoeste 8 Sur 0 -- -- 97
2018-05-17 00:00:00 9.9 4 Sudoeste 9 Oeste 0 -- -- 95
2018-05-16 23:00:00 11.4 3 Sudoeste 5 Nordeste 0 -- -- 92
2018-05-16 22:00:00 12.5 4 Nordeste 9 Norte 0 -- -- 87
2018-05-16 21:00:00 14.1 5 Norte 16 Norte 0 -- -- 82
2018-05-16 20:00:00 16.7 11 Norte 21 Nordeste 0 -- -- 74
2018-05-16 19:00:00 17.6 13 Norte 24 Norte 0 -- -- 70
2018-05-16 18:00:00 18 15 Norte 24 Norte 0 -- -- 70
2018-05-16 17:00:00 17 11 Norte 25 Nordeste 0 -- -- 75
2018-05-16 16:00:00 17.5 12 Norte 20 Norte 0 -- -- 75
2018-05-16 15:00:00 16.2 12 Norte 20 Norte 0 -- -- 80
2018-05-16 14:00:00 14.6 8 Nordeste 15 Nordeste 0 -- -- 81
2018-05-16 13:00:00 14.4 5 Nordeste 16 Nordeste 0 -- -- 86
2018-05-16 12:00:00 15.1 3 Este 7 Sudeste 0 -- -- 83
2018-05-16 11:00:00 14.1 2 Este 13 Sudoeste 0 -- -- 88
2018-05-16 10:00:00 13.4 7 Sur 12 Sudoeste 0 -- -- 93
2018-05-16 09:00:00 12.5 6 Sudoeste 10 Sudoeste 0 -- -- 95
2018-05-16 08:00:00 11.2 4 Sudoeste 12 Sur 0 -- -- 99
2018-05-16 07:00:00 10.6 6 Sudoeste 14 Oeste 0 -- -- 98
2018-05-16 06:00:00 10.5 5 Sudoeste 12 Sudoeste 0 -- -- 97
2018-05-16 05:00:00 10.5 6 Sur 10 Sur 0 -- -- 97
2018-05-16 04:00:00 10.9 4 Sudoeste 8 Sudoeste 0 -- -- 95
2018-05-16 03:00:00 11.1 5 Sudoeste 8 Sudoeste 0 -- -- 95
2018-05-16 02:00:00 11 5 Sudoeste 12 Sudoeste 0 -- -- 94
2018-05-16 01:00:00 10.9 8 Sudoeste 10 Sudoeste 0 -- -- 94
2018-05-16 00:00:00 11 5 Sudoeste 8 Oeste 0 -- -- 93
2018-05-15 23:00:00 11.1 4 Oeste 6 Sudoeste 0 -- -- 91
2018-05-15 22:00:00 11.7 0 Calma 7 Norte 0 -- -- 85
2018-05-15 21:00:00 13.4 5 Norte 14 Nordeste 0 -- -- 80
2018-05-15 20:00:00 15.4 6 Nordeste 19 Nordeste 0 -- -- 73
2018-05-15 19:00:00 16.2 10 Nordeste 21 Nordeste 0 -- -- 70
2018-05-15 18:00:00 16.4 10 Nordeste 25 Nordeste 0 -- -- 69
2018-05-15 17:00:00 17 14 Nordeste 27 Nordeste 0 -- -- 68
2018-05-15 16:00:00 16.8 15 Norte 31 Norte 0 -- -- 70
2018-05-15 15:00:00 17.2 10 Norte 27 Nordeste 0 -- -- 68
2018-05-15 14:00:00 15.5 10 Nordeste 22 Norte 0 -- -- 73
2018-05-15 13:00:00 14.4 8 Norte 20 Noroeste 0 -- -- 77
2018-05-15 12:00:00 14.7 9 Norte 23 Norte 0 -- -- 77
2018-05-15 11:00:00 14.7 9 Norte 19 Norte 0 -- -- 75
2018-05-15 10:00:00 14 3 Noroeste 12 Noroeste 0 -- -- 79
2018-05-15 09:00:00 12 8 Oeste 15 Noroeste 0 -- -- 87
2018-05-15 08:00:00 11.2 6 Oeste 16 Oeste 0 -- -- 88
2018-05-15 07:00:00 10.6 8 Oeste 13 Oeste 0 -- -- 90
2018-05-15 06:00:00 10.4 8 Sudoeste 14 Norte 0 -- -- 91
2018-05-15 05:00:00 10.6 8 Noroeste 18 Oeste 0 -- -- 90
2018-05-15 04:00:00 9.7 5 Noroeste 13 Noroeste 0 -- -- 96
2018-05-15 03:00:00 9.3 5 Oeste 12 Oeste 0 -- -- 95
2018-05-15 02:00:00 9.6 6 Sudoeste 9 Sudoeste 0 -- -- 95
2018-05-15 01:00:00 10.1 6 Sudoeste 11 Sudoeste 0 -- -- 94
2018-05-15 00:00:00 10.5 6 Sudoeste 10 Sudoeste 0 -- -- 92
2018-05-14 23:00:00 11.6 4 Noroeste 14 Noroeste 0 -- -- 87
2018-05-14 22:00:00 11.9 9 Norte 17 Norte 0 -- -- 85
2018-05-14 21:00:00 12.8 10 Norte 20 Norte 0 -- -- 81
2018-05-14 20:00:00 13.6 10 Norte 22 Norte 0 -- -- 80
2018-05-14 19:00:00 13.6 11 Norte 25 Norte 0 -- -- 78
2018-05-14 18:00:00 14.5 15 Norte 30 Norte 0 -- -- 74
2018-05-14 17:00:00 15.6 14 Nordeste 27 Norte 0 -- -- 69
2018-05-14 16:00:00 15.8 18 Norte 35 Norte 0 -- -- 70
2018-05-14 15:00:00 16 18 Nordeste 34 Nordeste 0 -- -- 64
2018-05-14 14:00:00 16.2 16 Nordeste 30 Nordeste 0 -- -- 66
2018-05-14 13:00:00 15.4 15 Nordeste 28 Nordeste 0 -- -- 71
2018-05-14 12:00:00 15 10 Nordeste 24 Este 0 -- -- 77
2018-05-14 11:00:00 13.4 5 Norte 10 Nordeste 0 -- -- 91
2018-05-14 10:00:00 11.4 4 Sur 10 Sudoeste 0 -- -- 99
2018-05-14 09:00:00 10.2 4 Sur 8 Sudoeste 0 -- -- 100
2018-05-14 08:00:00 9.4 0 Calma 8 Sur 0.2 -- -- 100
2018-05-14 07:00:00 9.2 6 Sur 10 Sudoeste 0.2 -- -- 100
2018-05-14 06:00:00 9.1 4 Sudoeste 9 Sudoeste 0 -- -- 100
2018-05-14 05:00:00 9.2 5 Sur 8 Sur 0.2 -- -- 100
2018-05-14 04:00:00 9.2 4 Sur 9 Sudoeste 0.2 -- -- 100
2018-05-14 03:00:00 9.3 6 Sudoeste 10 Sur 0.2 -- -- 100
2018-05-14 02:00:00 9.3 3 Sur 9 Sudoeste 0.4 -- -- 99
2018-05-14 01:00:00 9.4 8 Sudoeste 15 Oeste 0.4 -- -- 99
2018-05-11 20:00:00 -- -- -- -- -- -- -- -- --
2018-05-11 19:00:00 -- -- -- -- -- -- -- -- --
2018-05-11 18:00:00 18.1 14 Norte 26 Norte 0 -- -- 57
2018-05-11 17:00:00 20.3 14 Nordeste 26 Nordeste 0 -- -- 58
2018-05-11 16:00:00 20 12 Nordeste 32 Nordeste 0 -- -- 57
2018-05-11 15:00:00 21.6 11 Norte 26 Norte 0 -- -- 55
2018-05-11 14:00:00 24.5 12 Norte 28 Norte 0 -- -- 55
2018-05-11 13:00:00 25.1 6 Sudoeste 22 Sudoeste 0 -- -- 45
2018-05-11 12:00:00 23.5 12 Sudoeste 28 Sudoeste 0 -- -- 49
2018-05-11 11:00:00 21.1 12 Sur 22 Sur 0 -- -- 50
2018-05-11 10:00:00 16.8 8 Sur 14 Sur 0 -- -- 71
2018-05-11 09:00:00 10.2 5 Sudoeste 13 Sudoeste 0 -- -- 97
2018-05-11 08:00:00 5.7 10 Sudoeste 14 Oeste 0 -- -- 100
2018-05-11 07:00:00 4.6 6 Sudoeste 10 Sudoeste 0 -- -- 100
2018-05-11 06:00:00 4.2 6 Sudoeste 9 Sudoeste 0 -- -- 99
2018-05-11 05:00:00 4.5 6 Sudoeste 11 Sudoeste 0 -- -- 99
2018-05-11 04:00:00 5.4 7 Sudoeste 9 Sudoeste 0 -- -- 99
2018-05-11 03:00:00 5.8 6 Sudoeste 12 Oeste 0 -- -- 98
2018-05-11 02:00:00 6.7 5 Sudoeste 9 Sudoeste 0 -- -- 97
2018-05-11 01:00:00 7.3 6 Sudoeste 10 Sudoeste 0 -- -- 96
2018-05-11 00:00:00 8.1 6 Sudoeste 9 Oeste 0 -- -- 93
2018-05-10 23:00:00 10.3 5 Sudoeste 10 Sudoeste 0 -- -- 83
2018-05-10 22:00:00 11.4 0 Calma 7 Este 0 -- -- 79
2018-05-10 21:00:00 12.7 2 Norte 11 Este 0 -- -- 73
2018-05-10 20:00:00 14.4 6 Este 18 Este 0 -- -- 65
2018-05-10 19:00:00 15.2 12 Este 22 Nordeste 0 -- -- 57
2018-05-10 18:00:00 16.6 9 Este 24 Norte 0 -- -- 59
2018-05-10 17:00:00 17.1 13 Nordeste 27 Nordeste 0 -- -- 61
2018-05-10 16:00:00 16.5 15 Nordeste 29 Nordeste 0 -- -- 66
2018-05-10 15:00:00 16.5 13 Nordeste 32 Nordeste 0 -- -- 68
2018-05-10 14:00:00 15.7 15 Nordeste 33 Norte 0 -- -- 68
2018-05-10 13:00:00 15.5 14 Nordeste 30 Nordeste 0 -- -- 75
2018-05-10 12:00:00 14 15 Nordeste 28 Norte 0 -- -- 82
2018-05-10 11:00:00 13.6 13 Norte 26 Norte 0.2 -- -- 93
2018-05-10 10:00:00 12.2 7 Noroeste 20 Norte 1.8 -- -- 99
2018-05-10 09:00:00 12.2 4 Sur 13 Sudoeste 0 -- -- 100
2018-05-10 08:00:00 11.3 7 Sudoeste 12 Sur 0.6 -- -- 100
2018-05-10 07:00:00 11.3 0 Calma 5 Sudoeste 0.2 -- -- 99
2018-05-10 06:00:00 11.2 2 Sudeste 7 Sudoeste 0 -- -- 99
2018-05-10 05:00:00 11.1 4 Sur 9 Sudoeste 0 -- -- 99
2018-05-10 04:00:00 11.2 5 Oeste 12 Oeste 0 -- -- 98
2018-05-10 03:00:00 11.6 3 Sudoeste 9 Sudoeste 0 -- -- 98
2018-05-10 02:00:00 11.9 2 Sudoeste 5 Norte 0.2 -- -- 97
2018-05-10 01:00:00 12.2 2 Nordeste 7 Noroeste 0 -- -- 95
2018-05-10 00:00:00 12.7 3 Noroeste 16 Norte 0 -- -- 87
2018-05-09 23:00:00 13.2 12 Norte 21 Norte 0 -- -- 84
2018-05-09 22:00:00 13.4 5 Norte 12 Nordeste 0 -- -- 91
2018-05-09 21:00:00 13.9 9 Nordeste 18 Norte 0 -- -- 88
2018-05-09 20:00:00 14.3 9 Nordeste 24 Nordeste 0 -- -- 88
2018-05-09 19:00:00 14.8 13 Nordeste 22 Norte 0 -- -- 90
2018-05-09 18:00:00 15.4 12 Norte 22 Norte 0 -- -- 89
2018-05-09 17:00:00 16 12 Norte 21 Norte 0 -- -- 86
2018-05-09 16:00:00 17.1 10 Norte 17 Norte 0 -- -- 85
2018-05-09 15:00:00 17.1 7 Norte 15 Norte 0 -- -- 86
2018-05-09 14:00:00 16.2 0 Calma 8 Este 0 -- -- 83
2018-05-09 13:00:00 15.9 5 Sudeste 8 Este 0 -- -- 83
2018-05-09 12:00:00 15 3 Sudoeste 7 Sudoeste 0 -- -- 85
2018-05-09 11:00:00 13.8 4 Sur 9 Sur 0 -- -- 90
2018-05-09 10:00:00 13.1 4 Sudoeste 7 Sudoeste 0 -- -- 93
2018-05-09 09:00:00 12.5 5 Sudoeste 9 Sudoeste 0 -- -- 93
2018-05-09 08:00:00 12.3 6 Sudoeste 8 Sudoeste 0 -- -- 95
2018-05-09 07:00:00 12.1 4 Sudoeste 6 Oeste 0 -- -- 94
2018-05-09 06:00:00 12.2 4 Sudoeste 6 Sur 0 -- -- 93
2018-05-09 05:00:00 12.3 3 Sudoeste 8 Sudoeste 0 -- -- 92
2018-05-09 04:00:00 12.5 3 Sudoeste 11 Oeste 0 -- -- 91
2018-05-09 03:00:00 12.5 4 Sudoeste 9 Sudoeste 0 -- -- 90
2018-05-09 02:00:00 12.6 4 Sudoeste 9 Sur 0 -- -- 89
2018-05-09 01:00:00 12.9 5 Sudoeste 16 Oeste 0 -- -- 88
2018-05-09 00:00:00 13.3 12 Oeste 20 Noroeste 0 -- -- 83
2018-05-08 23:00:00 13.3 3 Norte 15 Nordeste 0 -- -- 86
2018-05-08 22:00:00 13.8 5 Nordeste 17 Nordeste 0 -- -- 86
2018-05-08 21:00:00 14.1 6 Norte 17 Nordeste 0 -- -- 86
2018-05-08 20:00:00 14.4 0 Calma 17 Norte 0 -- -- 88
2018-05-08 19:00:00 14.8 9 Norte 22 Noroeste 0 -- -- 88
2018-05-08 18:00:00 14.3 2 Sur 22 Nordeste 0 -- -- 92
2018-05-08 17:00:00 15 15 Norte 39 Norte 0 -- -- 88
2018-05-08 16:00:00 16.4 8 Norte 26 Noroeste 0 -- -- 86
2018-05-08 15:00:00 16.9 12 Noroeste 28 Noroeste 0 -- -- 87
2018-05-08 14:00:00 16.5 11 Norte 31 Noroeste 0 -- -- 88
2018-05-08 13:00:00 15.7 14 Norte 28 Noroeste 0 -- -- 91
2018-05-08 12:00:00 15.9 10 Noroeste 26 Noroeste 0 -- -- 89
2018-05-08 11:00:00 16.5 7 Noroeste 20 Oeste 0 -- -- 86
2018-05-08 10:00:00 15.4 11 Oeste 22 Oeste 0 -- -- 92
2018-05-08 09:00:00 14.5 8 Sudoeste 13 Sudoeste 0 -- -- 97
2018-05-08 08:00:00 14 5 Sudoeste 17 Oeste 0 -- -- 97
2018-05-08 07:00:00 14 5 Norte 16 Noroeste 0 -- -- 96
2018-05-08 06:00:00 14 4 Noroeste 9 Sudoeste 0 -- -- 98
2018-05-08 05:00:00 13.9 4 Sudoeste 8 Sur 0 -- -- 99
2018-05-08 04:00:00 13.8 4 Sur 11 Sur 0 -- -- 98
2018-05-08 03:00:00 13.9 5 Sudoeste 12 Sudoeste 0 -- -- 98
2018-05-08 02:00:00 14 5 Sudoeste 13 Sur 0 -- -- 98
2018-05-08 01:00:00 14.3 6 Sudoeste 15 Sur 0 -- -- 99
2018-05-08 00:00:00 14.1 6 Sudoeste 15 Sur 0 -- -- 98
2018-05-07 23:00:00 14.9 0 Calma 7 Norte 0 -- -- 96
2018-05-07 22:00:00 15.8 4 Nordeste 12 Nordeste 0 -- -- 91
2018-05-07 21:00:00 17.4 5 Nordeste 18 Norte 0 -- -- 85
2018-05-07 20:00:00 19.6 11 Norte 26 Norte 0 -- -- 78
2018-05-07 19:00:00 20.5 19 Norte 29 Norte 0 -- -- 73
2018-05-07 18:00:00 21.6 17 Norte 29 Norte 0 -- -- 68
2018-05-07 17:00:00 22.1 18 Norte 31 Norte 0 -- -- 67
2018-05-07 16:00:00 22.2 19 Norte 32 Norte 0 -- -- 67
2018-05-07 15:00:00 22.2 13 Norte 26 Nordeste 0 -- -- 68
2018-05-07 14:00:00 22.1 15 Norte 24 Nordeste 0 -- -- 70
2018-05-07 13:00:00 21.1 14 Norte 23 Nordeste 0 -- -- 72
2018-05-07 12:00:00 20.3 9 Nordeste 17 Norte 0 -- -- 75
2018-05-07 11:00:00 19.8 5 Nordeste 9 Nordeste 0 -- -- 78
2018-05-07 10:00:00 17.3 2 Este 7 Sudoeste 0 -- -- 85
2018-05-07 09:00:00 14 4 Sudoeste 9 Sudoeste 0 -- -- 94
2018-05-07 08:00:00 10.8 7 Sudoeste 11 Sur 0 -- -- 100
2018-05-07 07:00:00 9.9 7 Sudoeste 9 Sudoeste 0 -- -- 99
2018-05-07 06:00:00 10 5 Sudoeste 10 Sudoeste 0 -- -- 99
2018-05-07 05:00:00 10.1 6 Sudoeste 9 Sudoeste 0 -- -- 98
2018-05-07 04:00:00 10.3 5 Oeste 8 Oeste 0 -- -- 97
2018-05-07 03:00:00 11 4 Sudoeste 8 Oeste 0 -- -- 96
2018-05-07 02:00:00 11.6 5 Sudoeste 9 Sur 0 -- -- 94
2018-05-07 01:00:00 12.1 6 Sudoeste 9 Sudoeste 0 -- -- 92
2018-05-07 00:00:00 13.1 6 Sudoeste 9 Sudoeste 0 -- -- 88
2018-05-06 23:00:00 14.7 3 Sudeste 10 Nordeste 0 -- -- 78
2018-05-06 22:00:00 15.8 6 Nordeste 17 Norte 0 -- -- 70
2018-05-06 21:00:00 17.4 10 Norte 18 Norte 0 -- -- 66
2018-05-06 20:00:00 20.5 7 Norte 20 Norte 0 -- -- 60
2018-05-06 19:00:00 21.6 11 Norte 22 Norte 0 -- -- 58
2018-05-06 18:00:00 22.3 13 Norte 28 Norte 0 -- -- 57
2018-05-06 17:00:00 21.5 15 Norte 31 Norte 0 -- -- 56
2018-05-06 16:00:00 21.6 18 Norte 29 Norte 0 -- -- 55
2018-05-06 15:00:00 22.1 19 Norte 29 Norte 0 -- -- 54
2018-05-06 14:00:00 22.7 10 Norte 22 Nordeste 0 -- -- 59
2018-05-06 13:00:00 21.9 9 Nordeste 15 Nordeste 0 -- -- 62
2018-05-06 12:00:00 20.7 6 Nordeste 11 Nordeste 0 -- -- 57
2018-05-06 11:00:00 18.9 3 Norte 5 Norte 0 -- -- 68
2018-05-06 10:00:00 15.3 4 Sudoeste 9 Sur 0 -- -- 79
2018-05-06 09:00:00 12.1 6 Sur 10 Sur 0 -- -- 92
2018-05-06 08:00:00 9.3 3 Sudoeste 11 Sudoeste 0 -- -- 99
2018-05-06 07:00:00 8.8 6 Sudoeste 12 Sur 0 -- -- 98
2018-05-06 06:00:00 9 8 Sudoeste 12 Sudoeste 0 -- -- 98
2018-05-06 05:00:00 9.4 8 Sudoeste 14 Sudoeste 0 -- -- 99
2018-05-06 04:00:00 9.3 10 Sudoeste 13 Sudoeste 0 -- -- 98
2018-05-06 03:00:00 9.7 6 Sudoeste 11 Sudoeste 0 -- -- 98
2018-05-06 02:00:00 9.6 3 Oeste 12 Sudoeste 0 -- -- 98
2018-05-06 01:00:00 10.3 5 Sudoeste 10 Sudoeste 0 -- -- 96
2018-05-06 00:00:00 11 4 Sur 7 Sudoeste 0 -- -- 95
2018-05-05 23:00:00 11.8 3 Sur 6 Sudoeste 0 -- -- 91
2018-05-05 22:00:00 13.3 0 Calma 6 Nordeste 0 -- -- 86
2018-05-05 21:00:00 14.7 4 Nordeste 13 Norte 0 -- -- 80
2018-05-05 20:00:00 17.1 3 Norte 17 Norte 0 -- -- 73
2018-05-05 19:00:00 18.5 13 Norte 18 Norte 0 -- -- 70
2018-05-05 18:00:00 18.9 9 Norte 14 Nordeste 0 -- -- 68
2018-05-05 17:00:00 18.5 10 Norte 19 Nordeste 0 -- -- 70
2018-05-05 16:00:00 19.1 11 Norte 21 Nordeste 0 -- -- 54
2018-05-05 15:00:00 19.3 10 Norte 14 Norte 0 -- -- 70
2018-05-05 14:00:00 18.7 4 Norte 9 Este 0 -- -- 70
2018-05-05 13:00:00 17.8 5 Sudoeste 11 Sur 0 -- -- 73
2018-05-05 12:00:00 15.3 7 Oeste 17 Oeste 0 -- -- 80
2018-05-05 11:00:00 14.5 6 Sudoeste 11 Sudoeste 0 -- -- 83
2018-05-05 10:00:00 13.4 6 Sur 14 Sur 0 -- -- 95
2018-05-05 09:00:00 9.1 5 Sudoeste 12 Sur 0 -- -- 100
2018-05-05 08:00:00 7.7 7 Sur 13 Sudoeste 0 -- -- 100
2018-05-05 07:00:00 7 6 Sudoeste 10 Sudoeste 0 -- -- 100
2018-05-05 06:00:00 7 5 Sudoeste 10 Sudoeste 0 -- -- 100
2018-05-05 05:00:00 6.9 5 Sur 10 Sudoeste 0 -- -- 100
2018-05-05 04:00:00 7.2 5 Sudoeste 10 Sudoeste 0 -- -- 99
2018-05-05 03:00:00 7.5 4 Sudoeste 9 Sudoeste 0 -- -- 99
2018-05-05 02:00:00 8.1 4 Sur 10 Sudoeste 0 -- -- 98
2018-05-05 01:00:00 8.6 5 Sudoeste 8 Sudoeste 0 -- -- 95
2018-05-05 00:00:00 9.7 6 Sudoeste 9 Sudoeste 0 -- -- 94
2018-05-04 23:00:00 11.1 5 Sudoeste 9 Sudoeste 0 -- -- 89
2018-05-04 22:00:00 12 6 Norte 14 Norte 0 -- -- 88
2018-05-04 21:00:00 13.4 8 Norte 21 Norte 0 -- -- 85
2018-05-04 20:00:00 15 12 Nordeste 27 Norte 0 -- -- 80
2018-05-04 19:00:00 15 13 Nordeste 29 Norte 0 -- -- 80
2018-05-04 18:00:00 15.5 17 Nordeste 32 Nordeste 0 -- -- 78
2018-05-04 17:00:00 15.7 17 Nordeste 34 Norte 0 -- -- 78
2018-05-04 16:00:00 15.3 17 Nordeste 35 Norte 0 -- -- 79
2018-05-04 15:00:00 15.6 16 Nordeste 33 Norte 0 -- -- 78
2018-05-04 14:00:00 15.5 13 Nordeste 28 Nordeste 0 -- -- 81
2018-05-04 13:00:00 14.4 15 Nordeste 29 Nordeste 0 -- -- 81
2018-05-04 12:00:00 14.1 17 Nordeste 30 Nordeste 0 -- -- 84
2018-05-04 11:00:00 13.3 16 Nordeste 32 Nordeste 0 -- -- 83
2018-05-04 10:00:00 12.5 17 Norte 31 Norte 0 -- -- 86
2018-05-04 09:00:00 11 7 Norte 15 Nordeste 0 -- -- 93
2018-05-04 08:00:00 9.7 4 Norte 13 Nordeste 0 -- -- 95
2018-05-04 07:00:00 8.7 7 Oeste 10 Oeste 0 -- -- 95
2018-05-04 06:00:00 8.3 4 Oeste 10 Sudoeste 0 -- -- 96
2018-05-04 05:00:00 8 7 Sudoeste 11 Sudoeste 0 -- -- 95
2018-05-04 04:00:00 8 5 Sudoeste 14 Sudoeste 0 -- -- 95
2018-05-04 03:00:00 7.9 8 Oeste 14 Sudoeste 0 -- -- 93
2018-05-04 02:00:00 8.4 5 Sudoeste 12 Sudoeste 0 -- -- 92
2018-05-04 01:00:00 9.6 3 Sudoeste 12 Norte 0 -- -- 84
2018-05-04 00:00:00 10.3 4 Nordeste 17 Nordeste 0 -- -- 80
2018-05-03 23:00:00 10.9 9 Norte 24 Nordeste 0 -- -- 78
2018-05-03 22:00:00 11 10 Norte 23 Norte 0 -- -- 76
2018-05-03 21:00:00 11.7 13 Norte 32 Nordeste 0 -- -- 75
2018-05-03 20:00:00 12.2 13 Nordeste 30 Nordeste 0 -- -- 74
2018-05-03 19:00:00 13 12 Nordeste 31 Nordeste 0 -- -- 74
2018-05-03 18:00:00 13.7 13 Norte 29 Nordeste 0 -- -- 70
2018-05-03 17:00:00 13.1 15 Nordeste 35 Nordeste 0 -- -- 71
2018-05-03 16:00:00 13.6 15 Nordeste 32 Nordeste 0 -- -- 72
2018-05-03 15:00:00 13.6 18 Nordeste 34 Nordeste 0 -- -- 70
2018-05-03 14:00:00 13.9 16 Nordeste 34 Nordeste 0 -- -- 73
2018-05-03 13:00:00 13.3 18 Nordeste 35 Nordeste 0 -- -- 72
2018-05-03 12:00:00 13.4 19 Norte 34 Norte 0 -- -- 72
2018-05-03 11:00:00 12.3 17 Norte 36 Norte 0 -- -- 77
2018-05-03 10:00:00 11.3 15 Norte 26 Norte 0 -- -- 83
2018-05-03 09:00:00 10.6 13 Norte 26 Norte 0 -- -- 86
2018-05-03 08:00:00 9.9 6 Norte 24 Norte 0 -- -- 85
2018-05-03 07:00:00 9.8 5 Norte 18 Noroeste 0 -- -- 89
2018-05-03 06:00:00 9.8 9 Sudeste 23 Norte 0.2 -- -- 94
2018-05-03 05:00:00 9.8 4 Norte 24 Norte 0 -- -- 90
2018-05-03 04:00:00 10.3 13 Norte 24 Norte 0 -- -- 91
2018-05-03 03:00:00 11 9 Norte 18 Norte 0.2 -- -- 93
2018-05-03 02:00:00 11.4 10 Norte 26 Norte 0.2 -- -- 96
2018-05-03 01:00:00 12.2 8 Nordeste 21 Nordeste 0.4 -- -- 99
2018-05-03 00:00:00 12.5 11 Nordeste 19 Nordeste 0.6 -- -- 100
2018-05-02 23:00:00 12.5 3 Nordeste 11 Noroeste 1.4 -- -- 99
2018-05-02 22:00:00 12.5 6 Sudeste 14 Oeste 0.4 -- -- 98
2018-05-02 21:00:00 12.3 4 Sur 21 Oeste 1 -- -- 98
2018-05-02 20:00:00 12.2 7 Sudoeste 15 Oeste 1.2 -- -- 98
2018-05-02 19:00:00 12.2 6 Sudoeste 10 Sudoeste 0.8 -- -- 98
2018-05-02 18:00:00 12 6 Sudoeste 10 Sudoeste 1 -- -- 96
2018-05-02 17:00:00 12.6 6 Sudoeste 9 Sudoeste 1.2 -- -- 92
2018-05-02 16:00:00 13.7 4 Nordeste 12 Nordeste 0.6 -- -- 87
2018-05-02 15:00:00 14.3 11 Norte 18 Norte 0.2 -- -- 74
2018-05-02 14:00:00 16.2 9 Norte 19 Norte 0 -- -- 61
2018-05-02 13:00:00 18.1 4 Sudeste 12 Sur 0 -- -- 57
2018-05-02 12:00:00 15.6 5 Sudeste 10 Sur 0 -- -- 66
2018-05-02 11:00:00 13.4 2 Sur 5 Sudeste 0 -- -- 74
2018-05-02 10:00:00 10.6 3 Sudoeste 7 Sur 0 -- -- 89
2018-05-02 09:00:00 7.9 2 Sur 9 Sudoeste 0 -- -- 99
2018-05-02 08:00:00 6.3 8 Sudoeste 11 Sudoeste 0 -- -- 100
2018-05-02 07:00:00 5.6 3 Sur 7 Sudoeste 0 -- -- 100
2018-05-02 06:00:00 5.4 5 Sudoeste 9 Sudoeste 0 -- -- 99
2018-05-02 05:00:00 5.7 7 Sudoeste 11 Sudoeste 0 -- -- 99
2018-05-02 04:00:00 5.7 5 Sudoeste 8 Sudoeste 0 -- -- 99
2018-05-02 03:00:00 5.9 3 Sudoeste 6 Sudoeste 0 -- -- 98
2018-05-02 02:00:00 6.3 4 Sudoeste 7 Sudoeste 0 -- -- 97
2018-05-02 01:00:00 6.9 5 Sudoeste 8 Sudoeste 0 -- -- 95
2018-05-02 00:00:00 7.7 3 Sudoeste 4 Sudoeste 0 -- -- 91
2018-05-01 23:00:00 8.7 0 Calma 5 Norte 0 -- -- 86
2018-05-01 22:00:00 9.1 4 Norte 8 Norte 0 -- -- 85
2018-05-01 21:00:00 10.5 5 Nordeste 19 Este 0 -- -- 80
2018-05-01 20:00:00 12.1 10 Este 21 Este 0 -- -- 73
2018-05-01 19:00:00 13.4 13 Este 19 Sudeste 0 -- -- 69
2018-05-01 18:00:00 14 11 Este 20 Este 0 -- -- 67
2018-05-01 17:00:00 14.9 9 Nordeste 24 Nordeste 0 -- -- 66
2018-05-01 16:00:00 14.8 13 Norte 21 Norte 0 -- -- 71
2018-05-01 15:00:00 13 10 Nordeste 26 Norte 0 -- -- 67
2018-05-01 14:00:00 14.2 11 Norte 22 Norte 0 -- -- 70
2018-05-01 13:00:00 14.4 4 Nordeste 16 Noroeste 0 -- -- 68
2018-05-01 12:00:00 12.9 4 Sur 13 Sur 0 -- -- 78
2018-05-01 11:00:00 11.1 7 Oeste 19 Oeste 0 -- -- 87
2018-05-01 10:00:00 8.5 4 Sudoeste 10 Sur 0 -- -- 100
2018-05-01 09:00:00 7.4 4 Sudoeste 8 Oeste 0 -- -- 100
2018-05-01 08:00:00 6.7 5 Sudoeste 9 Sudoeste 0 -- -- 100
2018-05-01 07:00:00 6.9 6 Sudoeste 11 Sudoeste 0.2 -- -- 100
2018-05-01 06:00:00 6.8 6 Sudoeste 9 Sudoeste 0.6 -- -- 100
2018-05-01 05:00:00 6.9 0 Calma 14 Sudoeste 0.4 -- -- 99
2018-05-01 04:00:00 6.8 4 Sudoeste 13 Sudoeste 0.2 -- -- 98
2018-05-01 03:00:00 7.5 5 Sudoeste 13 Sudoeste 1.2 -- -- 98
2018-05-01 02:00:00 7.4 9 Noroeste 27 Noroeste 0.2 -- -- 99
2018-05-01 01:00:00 7.1 4 Oeste 10 Sudoeste 0 -- -- 98
2018-05-01 00:00:00 7.5 4 Sur 10 Sudoeste 0 -- -- 98
2018-04-30 23:00:00 8 5 Oeste 23 Noroeste 1 -- -- 96
2018-04-30 22:00:00 7.9 8 Sudoeste 13 Sur 0 -- -- 99
2018-04-30 21:00:00 8.4 6 Sudoeste 16 Nordeste 0.2 -- -- 97
2018-04-30 20:00:00 8.7 4 Sur 11 Sudoeste 2.2 -- -- 97
2018-04-30 19:00:00 9 3 Sur 10 Sudoeste 0.4 -- -- 94
2018-04-30 18:00:00 8.8 8 Sudoeste 12 Sudoeste 0.2 -- -- 94
2018-04-30 17:00:00 8.8 6 Sudoeste 22 Norte 0.4 -- -- 89
2018-04-30 16:00:00 8.9 6 Noroeste 25 Noroeste 0.6 -- -- 89
2018-04-30 15:00:00 10 3 Nordeste 14 Norte 0.6 -- -- 90
2018-04-30 14:00:00 9.9 2 Noroeste 17 Oeste 0.2 -- -- 87
2018-04-30 13:00:00 9.8 3 Sudoeste 10 Oeste 0.6 -- -- 89
2018-04-30 12:00:00 9.1 7 Sudoeste 18 Sudoeste 1 -- -- 90
2018-04-30 11:00:00 9.2 10 Sudoeste 18 Oeste 0.2 -- -- 90
2018-04-30 10:00:00 8.9 8 Sudoeste 13 Sudoeste 0.2 -- -- 93
2018-04-30 09:00:00 8.6 6 Sur 13 Oeste 0 -- -- 95
2018-04-30 08:00:00 7.9 7 Oeste 12 Oeste 0.2 -- -- 97
2018-04-30 07:00:00 7.6 5 Sudoeste 14 Sur 0 -- -- 97
2018-04-30 06:00:00 7.8 7 Sur 12 Sur 0.2 -- -- 97
2018-04-30 05:00:00 8.2 5 Sur 17 Sudoeste 0.4 -- -- 95
2018-04-30 04:00:00 8.9 6 Sudoeste 24 Oeste 0 -- -- 89
2018-04-30 03:00:00 8.9 10 Oeste 20 Noroeste 0 -- -- 89
2018-04-30 02:00:00 8.8 3 Sur 10 Sudeste 0 -- -- 92
2018-04-30 01:00:00 9.1 4 Sudeste 13 Oeste 0 -- -- 90
2018-04-30 00:00:00 9.1 9 Oeste 14 Sudoeste 0 -- -- 91
2018-04-29 23:00:00 9.4 9 Sudoeste 23 Oeste 0 -- -- 87
2018-04-29 22:00:00 9.7 7 Oeste 14 Sudoeste 0 -- -- 85
2018-04-29 21:00:00 10.2 9 Sudoeste 18 Sudoeste 0 -- -- 87
2018-04-29 20:00:00 11.9 7 Oeste 19 Norte 0 -- -- 78
2018-04-29 19:00:00 13.4 5 Este 11 Norte 0 -- -- 75
2018-04-29 18:00:00 12.6 5 Norte 21 Norte 0 -- -- 74
2018-04-29 17:00:00 13.5 13 Norte 31 Nordeste 0 -- -- 72
2018-04-29 16:00:00 14.7 14 Nordeste 30 Norte 0 -- -- 67
2018-04-29 15:00:00 16.1 17 Norte 31 Nordeste 0 -- -- 64
2018-04-29 14:00:00 15.2 14 Norte 30 Norte 0 -- -- 68
2018-04-29 13:00:00 13.4 7 Norte 26 Noroeste 0 -- -- 74
2018-04-29 12:00:00 13.5 7 Noroeste 20 Noroeste 0 -- -- 75
2018-04-29 11:00:00 12.8 6 Noroeste 21 Noroeste 0 -- -- 79
2018-04-29 10:00:00 11.3 15 Noroeste 31 Noroeste 0 -- -- 83
2018-04-29 09:00:00 10.4 12 Noroeste 27 Oeste 0 -- -- 88
2018-04-29 08:00:00 10.1 13 Noroeste 22 Noroeste 0 -- -- 89
2018-04-29 07:00:00 9.7 9 Oeste 18 Oeste 0 -- -- 92
2018-04-29 06:00:00 9.8 10 Noroeste 29 Noroeste 0 -- -- 90
2018-04-29 05:00:00 9.9 17 Noroeste 37 Noroeste 0 -- -- 89
2018-04-29 04:00:00 10.5 14 Noroeste 36 Noroeste 0 -- -- 92
2018-04-29 03:00:00 11 12 Noroeste 20 Noroeste 0 -- -- 97
2018-04-29 02:00:00 10.6 3 Oeste 8 Sudoeste 0 -- -- 100
2018-04-29 01:00:00 10.7 5 Sudoeste 6 Sudoeste 0 -- -- 100
2018-04-29 00:00:00 10.8 0 Calma 5 Noroeste 0 -- -- 99
2018-04-28 23:00:00 10.9 0 Calma 5 Oeste 0 -- -- 99
2018-04-28 22:00:00 10.9 0 Calma 5 Norte 0 -- -- 98
2018-04-28 21:00:00 11.2 3 Nordeste 6 Nordeste 0 -- -- 97
2018-04-28 20:00:00 11.2 3 Norte 7 Norte 0 -- -- 97
2018-04-28 19:00:00 11.2 4 Norte 7 Norte 0.2 -- -- 96
2018-04-28 18:00:00 11.4 5 Norte 11 Norte 0 -- -- 95
2018-04-28 17:00:00 11.8 5 Nordeste 11 Nordeste 0 -- -- 94
2018-04-28 16:00:00 11.9 6 Norte 13 Nordeste 0 -- -- 94
2018-04-28 15:00:00 11.6 4 Nordeste 11 Nordeste 0 -- -- 96
2018-04-28 14:00:00 11 3 Norte 7 Norte 0 -- -- 98
2018-04-28 13:00:00 10.9 4 Norte 8 Norte 0.2 -- -- 98
2018-04-28 12:00:00 10.6 4 Norte 9 Este 0 -- -- 99
2018-04-28 11:00:00 10.4 4 Nordeste 9 Este 0.2 -- -- 99
2018-04-28 10:00:00 10.3 3 Oeste 6 Oeste 0.2 -- -- 100
2018-04-28 09:00:00 9.8 2 Sudoeste 6 Sudoeste 0 -- -- 100
2018-04-28 08:00:00 9.4 2 Sudoeste 7 Sudeste 0 -- -- 100
2018-04-28 07:00:00 9.3 4 Oeste 8 Sudoeste 0.2 -- -- 100
2018-04-28 06:00:00 9.4 0 Calma 3 Sudeste 0.6 -- -- 100
2018-04-28 05:00:00 9.5 2 Sur 10 Oeste 2 -- -- 99
2018-04-28 04:00:00 9.9 5 Sudoeste 10 Sudoeste 1 -- -- 98
2018-04-28 03:00:00 10.1 4 Sudoeste 8 Sudoeste 0.2 -- -- 95
2018-04-28 02:00:00 10.3 2 Sudoeste 9 Sudoeste 0 -- -- 94
2018-04-28 01:00:00 10.6 4 Sudoeste 10 Sudoeste 0 -- -- 94
2018-04-28 00:00:00 10.6 3 Sur 6 Sudeste 0 -- -- 93